Time;durP1;ratioP1;P1;durP2;ratioP2;P2;SDS_P1;SDS_P2;PMS_P1;PMS_P2;Temp;Humidity;BMP_temperature;BMP_pressure;BME280_temperature;BME280_humidity;BME280_pressure;Samples;Min_cycle;Max_cycle;Signal;HPM_P1;HPM_P2
2023/06/18 00:00:13;;;;;;;7.07;5.85;;;;;;;26.08;51.80;100905.84;5095577;28;20044;-52
2023/06/18 00:02:40;;;;;;;8.45;6.00;;;;;;;26.08;51.85;100895.84;5095576;28;20040;-53
2023/06/18 00:05:08;;;;;;;6.78;6.07;;;;;;;26.09;51.75;100897.56;5094893;28;20048;-54
2023/06/18 00:07:35;;;;;;;6.72;5.32;;;;;;;26.09;51.95;100892.13;5095478;28;20040;-54
2023/06/18 00:10:04;;;;;;;6.38;5.68;;;;;;;26.09;51.91;100894.84;5095140;28;20369;-54
2023/06/18 00:12:31;;;;;;;6.05;5.45;;;;;;;26.10;51.98;100898.38;5093684;28;20040;-48
2023/06/18 00:14:58;;;;;;;7.03;5.75;;;;;;;26.10;51.91;100892.97;5095302;28;20063;-47
2023/06/18 00:17:26;;;;;;;6.65;5.85;;;;;;;26.09;51.74;100894.84;5095490;28;20111;-48
2023/06/18 00:19:53;;;;;;;7.57;5.35;;;;;;;26.10;51.91;100895.69;5094940;28;20051;-48
2023/06/18 00:22:21;;;;;;;6.45;5.65;;;;;;;26.10;52.01;100899.22;5094973;28;20378;-54
2023/06/18 00:24:48;;;;;;;6.82;5.88;;;;;;;26.09;51.95;100896.69;5095239;28;20074;-53
2023/06/18 00:27:16;;;;;;;5.88;5.25;;;;;;;26.10;52.01;100896.53;5094825;28;20052;-50
2023/06/18 00:29:46;;;;;;;6.50;5.70;;;;;;;26.10;52.10;100899.22;5095046;28;20388;-53
2023/06/18 00:32:15;;;;;;;6.03;5.18;;;;;;;26.10;51.96;100901.09;5094337;28;20047;-49
2023/06/18 00:34:42;;;;;;;5.97;5.32;;;;;;;26.10;52.21;100904.66;5094001;28;20044;-48
2023/06/18 00:37:10;;;;;;;6.90;5.35;;;;;;;26.10;52.23;100903.81;5093880;28;20047;-49
2023/06/18 00:39:38;;;;;;;6.00;5.40;;;;;;;26.11;52.24;100905.50;5095285;28;20043;-48
2023/06/18 00:42:07;;;;;;;5.50;5.00;;;;;;;26.10;52.20;100907.38;5094742;28;20044;-47
2023/06/18 00:44:40;;;;;;;6.30;5.60;;;;;;;26.09;52.30;100919.25;5093121;28;20051;-48
2023/06/18 00:47:12;;;;;;;5.60;4.80;;;;;;;26.10;52.20;100920.94;5094042;28;20063;-48
2023/06/18 00:49:43;;;;;;;7.03;5.70;;;;;;;26.10;52.31;100918.22;5094668;28;20052;-48
2023/06/18 00:52:14;;;;;;;5.68;4.80;;;;;;;26.10;52.59;100917.38;5094693;28;20048;-50
2023/06/18 00:54:44;;;;;;;6.55;5.05;;;;;;;26.11;52.32;100921.78;5094684;28;20495;-48
2023/06/18 00:57:17;;;;;;;6.88;5.95;;;;;;;26.09;52.33;100919.25;5092108;28;20048;-48
2023/06/18 00:59:46;;;;;;;6.88;5.60;;;;;;;26.09;52.49;100921.97;5093490;28;20055;-48
2023/06/18 01:02:23;;;;;;;7.75;5.75;;;;;;;26.09;52.55;100913.81;5094638;28;20055;-54
2023/06/18 01:04:56;;;;;;;6.68;5.35;;;;;;;26.09;52.49;100919.25;5093144;28;20051;-54
2023/06/18 01:07:24;;;;;;;5.97;5.38;;;;;;;26.09;52.58;100923.81;5092972;28;20055;-54
2023/06/18 01:09:56;;;;;;;6.72;5.80;;;;;;;26.09;52.43;100916.53;5092960;28;20395;-53
2023/06/18 01:12:29;;;;;;;6.75;5.85;;;;;;;26.09;52.67;100912.94;5093052;28;20051;-54
2023/06/18 01:14:57;;;;;;;5.82;5.22;;;;;;;26.09;52.63;100918.38;5092124;28;20043;-54
2023/06/18 01:17:33;;;;;;;5.35;4.80;;;;;;;26.09;52.68;100915.66;5093649;28;20063;-55
2023/06/18 01:20:10;;;;;;;5.55;5.05;;;;;;;26.09;52.70;100921.09;5093994;28;20048;-54
2023/06/18 01:22:46;;;;;;;5.88;5.25;;;;;;;26.09;52.79;100923.81;5093780;28;20063;-47
2023/06/18 01:25:14;;;;;;;6.60;5.57;;;;;;;26.09;52.88;100923.81;5092187;28;20052;-48
2023/06/18 01:27:47;;;;;;;6.30;5.70;;;;;;;26.09;52.65;100923.81;5093604;28;20360;-48
2023/06/18 01:30:14;;;;;;;6.35;5.70;;;;;;;26.08;52.85;100922.97;5076073;28;20044;-49
2023/06/18 01:32:42;;;;;;;5.82;5.15;;;;;;;26.07;52.89;100917.72;5093117;28;20063;-51
2023/06/18 01:35:15;;;;;;;6.60;5.85;;;;;;;26.08;52.80;100914.81;5092631;28;20520;-52
2023/06/18 01:38:01;;;;;;;6.03;5.43;;;;;;;26.08;52.88;100920.25;5092240;28;20407;-54
2023/06/18 01:40:43;;;;;;;6.25;5.65;;;;;;;26.08;52.61;100911.28;5093620;28;20048;-54
2023/06/18 01:43:21;;;;;;;6.07;5.47;;;;;;;26.08;52.68;100922.97;5076625;28;20488;-48
2023/06/18 01:46:01;;;;;;;5.68;4.80;;;;;;;26.08;52.62;100914.81;5093459;28;20048;-48
2023/06/18 01:48:45;;;;;;;5.47;4.97;;;;;;;26.08;52.58;100912.09;5093549;28;20772;-49
2023/06/18 01:51:16;;;;;;;7.00;5.78;;;;;;;26.09;52.61;100915.66;5092480;28;20060;-54
2023/06/18 01:53:45;;;;;;;6.43;5.45;;;;;;;26.08;52.69;100914.81;5093407;28;20395;-54
2023/06/18 01:56:13;;;;;;;5.75;5.22;;;;;;;26.09;52.75;100919.25;5092335;28;20055;-54
2023/06/18 01:58:42;;;;;;;6.18;5.57;;;;;;;26.09;52.80;100929.22;5093681;28;20048;-54
2023/06/18 02:01:11;;;;;;;6.20;5.45;;;;;;;26.08;52.81;100931.09;5092312;28;20052;-54
2023/06/18 02:03:39;;;;;;;7.80;5.65;;;;;;;26.09;52.80;100934.66;5092242;28;20492;-54
2023/06/18 02:06:07;;;;;;;6.38;5.20;;;;;;;26.08;52.75;100939.25;5092143;28;20048;-54
2023/06/18 02:08:35;;;;;;;6.50;5.80;;;;;;;26.08;52.61;100939.25;5093470;28;20051;-54
2023/06/18 02:11:02;;;;;;;6.78;6.07;;;;;;;26.09;52.88;100934.66;5091273;28;20052;-53
2023/06/18 02:13:30;;;;;;;7.18;6.03;;;;;;;26.08;52.80;100930.25;5090493;28;20048;-53
2023/06/18 02:15:57;;;;;;;8.07;5.45;;;;;;;26.09;52.70;100931.94;5092079;28;20491;-54
2023/06/18 02:18:30;;;;;;;6.47;5.88;;;;;;;26.09;52.67;100932.81;5091745;28;20047;-54
2023/06/18 02:20:59;;;;;;;6.55;5.47;;;;;;;26.09;52.67;100924.69;5093254;28;20067;-53
2023/06/18 02:23:27;;;;;;;6.32;5.72;;;;;;;26.09;52.62;100923.81;5091916;28;20059;-54
2023/06/18 02:25:57;;;;;;;6.53;5.38;;;;;;;26.08;52.36;100931.09;5091570;28;20048;-54
2023/06/18 02:28:25;;;;;;;7.03;5.63;;;;;;;26.08;52.62;100931.09;5092162;28;20059;-54
2023/06/18 02:30:54;;;;;;;5.57;5.07;;;;;;;26.08;52.49;100933.81;5092842;28;20048;-54
2023/06/18 02:33:22;;;;;;;6.68;5.97;;;;;;;26.07;52.44;100934.84;5091399;28;20472;-53
2023/06/18 02:35:50;;;;;;;7.10;6.30;;;;;;;26.08;52.38;100938.41;5093246;28;20044;-54
2023/06/18 02:38:17;;;;;;;6.72;6.03;;;;;;;26.09;52.27;100940.09;5092245;28;20044;-54
2023/06/18 02:40:45;;;;;;;7.07;5.32;;;;;;;26.09;52.39;100957.25;5093025;28;20059;-49
2023/06/18 02:43:12;;;;;;;6.35;5.60;;;;;;;26.09;52.01;100946.38;5092263;28;20400;-48
2023/06/18 02:45:41;;;;;;;6.63;5.93;;;;;;;26.08;52.38;100957.41;5091450;28;20055;-48
2023/06/18 02:48:09;;;;;;;6.20;5.53;;;;;;;26.08;52.44;100952.81;5092758;28;20059;-49
2023/06/18 02:50:36;;;;;;;7.95;5.88;;;;;;;26.07;52.40;100959.25;5093188;28;20048;-49
2023/06/18 02:53:04;;;;;;;6.75;5.72;;;;;;;26.07;52.41;100961.13;5092863;28;20051;-55
2023/06/18 02:55:31;;;;;;;7.22;5.32;;;;;;;26.07;52.56;100964.69;5093167;28;20380;-54
2023/06/18 02:57:59;;;;;;;6.60;5.05;;;;;;;26.06;52.45;100973.84;5091316;28;20048;-54
2023/06/18 03:00:26;;;;;;;6.00;5.40;;;;;;;26.08;52.62;100970.97;5091772;28;20412;-54
2023/06/18 03:02:54;;;;;;;7.25;5.57;;;;;;;26.08;52.88;100977.22;5091746;28;20044;-54
2023/06/18 03:05:27;;;;;;;7.50;6.32;;;;;;;26.07;53.03;100980.97;5091416;28;20495;-54
2023/06/18 03:07:55;;;;;;;8.60;6.18;;;;;;;26.08;52.63;100970.97;5091878;28;20059;-54
2023/06/18 03:10:22;;;;;;;5.70;5.15;;;;;;;26.07;52.54;100977.41;5091683;28;20067;-54
2023/06/18 03:12:53;;;;;;;8.10;5.82;;;;;;;26.07;52.56;100975.53;5091616;28;20389;-54
2023/06/18 03:15:30;;;;;;;6.13;5.40;;;;;;;26.05;52.49;100974.88;5089822;28;20043;-54
2023/06/18 03:17:57;;;;;;;7.40;6.13;;;;;;;26.06;52.51;100979.28;5091212;28;20048;-54
2023/06/18 03:20:30;;;;;;;7.03;6.03;;;;;;;26.05;52.53;100977.59;5094154;28;20415;-54
2023/06/18 03:22:59;;;;;;;6.88;6.03;;;;;;;26.06;52.36;100987.41;5095033;28;20052;-54
2023/06/18 03:25:27;;;;;;;6.50;5.85;;;;;;;26.05;52.34;100983.03;5095287;28;20052;-54
2023/06/18 03:27:54;;;;;;;6.03;5.43;;;;;;;26.05;52.20;100972.16;5094837;28;20506;-53
2023/06/18 03:30:25;;;;;;;6.65;5.95;;;;;;;26.05;52.17;100964.03;5095007;28;20051;-53
2023/06/18 03:32:55;;;;;;;6.30;5.70;;;;;;;26.05;52.04;100969.47;5096393;28;20059;-49
2023/06/18 03:35:23;;;;;;;7.78;5.47;;;;;;;26.04;51.97;100970.44;5094566;28;20052;-47
2023/06/18 03:37:51;;;;;;;7.05;5.90;;;;;;;26.05;52.08;100976.72;5094555;28;20040;-48
2023/06/18 03:40:18;;;;;;;6.50;5.90;;;;;;;26.04;51.75;100970.44;5095007;28;20051;-50
2023/06/18 03:42:46;;;;;;;5.95;5.35;;;;;;;26.03;51.92;100979.63;5095242;28;20044;-54
2023/06/18 03:45:20;;;;;;;5.88;5.28;;;;;;;26.04;51.80;100975.88;5094811;28;20052;-54
2023/06/18 03:47:48;;;;;;;6.20;5.60;;;;;;;26.03;51.60;100979.63;5094524;28;20070;-54
2023/06/18 03:50:17;;;;;;;6.20;5.60;;;;;;;26.02;51.45;100975.22;5094990;28;20491;-51
2023/06/18 03:52:44;;;;;;;6.22;5.55;;;;;;;26.03;51.48;100967.91;5094593;28;20052;-54
2023/06/18 03:55:12;;;;;;;7.30;6.13;;;;;;;26.02;51.42;100975.22;5094543;28;20052;-54
2023/06/18 03:57:40;;;;;;;8.32;6.22;;;;;;;26.02;51.58;100975.22;5094454;28;20056;-55
2023/06/18 04:00:10;;;;;;;7.07;6.38;;;;;;;26.02;51.58;100980.66;5094272;28;20052;-54
2023/06/18 04:02:42;;;;;;;5.40;4.90;;;;;;;26.02;51.48;100982.50;5094526;28;20048;-50
2023/06/18 04:05:16;;;;;;;5.90;5.28;;;;;;;26.01;51.24;100981.69;5094486;28;20048;-59
2023/06/18 04:07:43;;;;;;;6.07;5.15;;;;;;;26.02;51.42;100982.50;5095394;28;20059;-54
2023/06/18 04:10:12;;;;;;;6.97;5.45;;;;;;;26.01;51.45;100987.09;5094009;28;20052;-55
2023/06/18 04:12:39;;;;;;;7.00;6.30;;;;;;;26.02;51.30;100982.50;5095271;28;20480;-55
2023/06/18 04:15:07;;;;;;;5.97;5.18;;;;;;;26.01;51.28;100984.38;5094691;28;20062;-54
2023/06/18 04:17:39;;;;;;;6.53;5.50;;;;;;;26.00;51.13;100979.13;5090312;28;20412;-55
2023/06/18 04:20:10;;;;;;;8.73;5.68;;;;;;;26.01;51.10;100986.22;5093701;28;20059;-55
2023/06/18 04:22:37;;;;;;;6.28;5.68;;;;;;;26.00;51.06;100998.94;5094111;28;20059;-50
2023/06/18 04:25:05;;;;;;;6.85;5.70;;;;;;;26.01;51.01;101002.50;5094343;28;20064;-49
2023/06/18 04:27:33;;;;;;;6.40;5.80;;;;;;;26.01;51.06;101007.94;5093719;28;20062;-49
2023/06/18 04:30:01;;;;;;;5.75;5.15;;;;;;;26.00;50.93;101004.38;5093605;28;20067;-49
2023/06/18 04:32:28;;;;;;;6.00;5.40;;;;;;;26.01;50.84;101002.50;5093245;28;20059;-48
2023/06/18 04:34:57;;;;;;;6.57;5.95;;;;;;;26.00;50.79;101004.38;5093940;28;20052;-49
2023/06/18 04:37:27;;;;;;;6.32;5.72;;;;;;;26.00;50.82;101003.53;5092950;28;20679;-49
2023/06/18 04:39:54;;;;;;;6.07;5.43;;;;;;;26.01;50.80;101006.09;5093973;28;20044;-48
2023/06/18 04:42:22;;;;;;;6.00;5.38;;;;;;;25.99;50.54;101008.13;5093147;28;20056;-54
2023/06/18 04:44:50;;;;;;;6.07;5.47;;;;;;;26.00;50.67;101012.50;5093383;28;20524;-54
2023/06/18 04:47:17;;;;;;;6.85;5.90;;;;;;;26.00;50.67;101006.25;5093601;28;20055;-53
2023/06/18 04:49:45;;;;;;;6.47;5.65;;;;;;;25.98;50.57;101003.72;5093326;28;20052;-54
2023/06/18 04:52:13;;;;;;;7.22;5.70;;;;;;;25.99;50.37;100997.25;5076567;28;20055;-54
2023/06/18 04:54:44;;;;;;;6.57;5.85;;;;;;;25.99;50.49;100999.97;5093486;28;20048;-55
2023/06/18 04:57:12;;;;;;;6.43;5.82;;;;;;;25.98;50.68;101003.72;5093027;28;20052;-54
2023/06/18 04:59:40;;;;;;;6.90;5.53;;;;;;;25.99;50.65;101002.69;5094210;28;20036;-53
2023/06/18 05:02:09;;;;;;;6.78;6.10;;;;;;;25.99;50.49;101008.13;5093649;28;20048;-54
2023/06/18 05:04:36;;;;;;;7.68;6.13;;;;;;;25.99;50.54;101005.41;5094182;28;20043;-54
2023/06/18 05:07:04;;;;;;;7.22;6.18;;;;;;;25.98;50.57;101002.88;5094161;28;20044;-54
2023/06/18 05:09:34;;;;;;;6.38;5.78;;;;;;;25.99;50.26;101012.69;5092992;28;20044;-54
2023/06/18 05:12:02;;;;;;;7.30;6.07;;;;;;;25.98;50.38;101005.59;5093174;28;20048;-49
2023/06/18 05:14:30;;;;;;;8.55;5.55;;;;;;;25.99;50.57;101009.97;5092912;28;20048;-48
2023/06/18 05:16:58;;;;;;;7.32;5.60;;;;;;;25.98;50.34;101009.13;5091076;28;20048;-48
2023/06/18 05:19:26;;;;;;;6.40;5.60;;;;;;;25.99;50.39;101012.69;5092542;28;20055;-49
2023/06/18 05:21:53;;;;;;;6.15;5.55;;;;;;;25.99;50.33;101012.69;5093740;28;20036;-55
2023/06/18 05:24:24;;;;;;;7.22;4.90;;;;;;;25.98;50.16;101017.28;5092922;28;20052;-52
2023/06/18 05:26:52;;;;;;;6.05;5.10;;;;;;;25.99;50.19;101018.13;5093489;28;20055;-54
2023/06/18 05:29:20;;;;;;;7.18;5.25;;;;;;;25.98;50.11;101011.00;5093670;28;20040;-54
2023/06/18 05:31:51;;;;;;;6.10;5.50;;;;;;;25.98;50.06;101020.00;5093330;28;20078;-50
2023/06/18 05:34:28;;;;;;;5.88;4.97;;;;;;;25.98;49.99;101028.13;5092681;28;20101;-47
2023/06/18 05:36:56;;;;;;;8.05;5.38;;;;;;;25.99;50.06;101026.25;5092461;28;20048;-49
2023/06/18 05:39:24;;;;;;;5.50;5.00;;;;;;;25.98;50.01;101028.13;5092286;28;20048;-48
2023/06/18 05:41:52;;;;;;;6.93;5.60;;;;;;;25.98;49.88;101025.41;5092279;28;20373;-54
2023/06/18 05:44:22;;;;;;;5.28;4.78;;;;;;;25.99;49.81;101012.69;5092625;28;20060;-54
2023/06/18 05:46:50;;;;;;;6.30;5.65;;;;;;;25.99;49.68;101023.53;5092108;28;20130;-53
2023/06/18 05:49:18;;;;;;;6.78;5.72;;;;;;;25.99;49.82;101024.38;5091768;28;20379;-54
2023/06/18 05:51:46;;;;;;;6.25;5.30;;;;;;;26.00;49.78;101027.94;5092299;28;20052;-54
2023/06/18 05:54:14;;;;;;;5.22;4.68;;;;;;;25.99;49.80;101023.53;5093233;28;20475;-53
2023/06/18 05:56:41;;;;;;;6.55;5.40;;;;;;;25.99;49.90;101027.09;5092168;28;20052;-54
2023/06/18 05:59:09;;;;;;;6.35;5.75;;;;;;;25.99;49.93;101028.97;5092273;28;20055;-54
2023/06/18 06:01:41;;;;;;;6.63;5.10;;;;;;;25.99;49.98;101018.13;5092021;28;20067;-54
2023/06/18 06:04:09;;;;;;;5.88;5.03;;;;;;;25.99;49.88;101026.25;5092620;28;20056;-54
2023/06/18 06:06:37;;;;;;;6.20;5.40;;;;;;;25.99;50.09;101031.69;5091827;28;20055;-54
2023/06/18 06:09:06;;;;;;;4.65;4.25;;;;;;;25.99;50.19;101031.69;5074962;28;20048;-54
2023/06/18 06:11:36;;;;;;;6.03;5.32;;;;;;;25.99;50.23;101037.94;5092426;28;20047;-48
2023/06/18 06:14:10;;;;;;;5.78;5.00;;;;;;;26.00;50.16;101033.38;5091957;28;20055;-48
2023/06/18 06:16:37;;;;;;;6.50;5.30;;;;;;;26.00;50.26;101045.06;5091542;28;20048;-50
2023/06/18 06:19:05;;;;;;;5.93;5.25;;;;;;;26.01;50.30;101041.34;5090564;28;20044;-51
2023/06/18 06:21:33;;;;;;;6.70;5.88;;;;;;;25.99;50.37;101032.53;5091752;28;20051;-49
2023/06/18 06:24:01;;;;;;;5.72;4.95;;;;;;;26.00;50.42;101031.50;5090987;28;20055;-48
2023/06/18 06:26:29;;;;;;;5.53;4.90;;;;;;;26.00;50.33;101039.63;5092239;28;20052;-49
2023/06/18 06:28:57;;;;;;;6.40;5.28;;;;;;;26.00;50.41;101039.63;5091746;28;20055;-49
2023/06/18 06:31:24;;;;;;;6.90;5.45;;;;;;;26.02;50.53;101042.19;5091954;28;20530;-53
2023/06/18 06:33:52;;;;;;;6.30;5.43;;;;;;;26.02;50.43;101042.19;5091983;28;20052;-54
2023/06/18 06:36:24;;;;;;;5.43;4.78;;;;;;;26.02;50.70;101053.06;5091510;28;20491;-54
2023/06/18 06:38:52;;;;;;;5.20;4.70;;;;;;;26.01;50.70;101044.06;5091208;28;20048;-54
2023/06/18 06:41:19;;;;;;;5.30;4.80;;;;;;;26.01;50.55;101046.78;5091811;28;20059;-48
2023/06/18 06:43:47;;;;;;;5.93;5.32;;;;;;;26.02;50.86;101053.91;5091766;28;20048;-48
2023/06/18 06:46:41;;;;;;;4.85;4.22;;;;;;;26.03;50.78;101052.03;5090551;28;20052;-48
2023/06/18 06:49:16;;;;;;;5.00;4.43;;;;;;;26.03;50.71;101052.88;5091531;28;20052;-50
2023/06/18 06:52:19;;;;;;;5.65;5.00;;;;;;;26.02;50.66;101059.31;5050551;28;20358;-51
2023/06/18 06:54:50;;;;;;;6.53;5.18;;;;;;;26.02;50.78;101059.31;5085025;28;20494;-51
2023/06/18 06:57:18;;;;;;;5.65;4.68;;;;;;;26.04;50.85;101064.56;5095239;28;20051;-49
2023/06/18 06:59:51;;;;;;;5.35;4.85;;;;;;;26.03;50.77;101063.72;5095390;28;20055;-53
2023/06/18 07:02:18;;;;;;;;;;;;;;;26.02;50.80;101064.75;5097476;28;20055;-54
2023/06/18 07:04:48;;;;;;;5.72;5.00;;;;;;;26.05;50.87;101068.97;5096869;28;20512;-54
2023/06/18 07:07:15;;;;;;;6.22;4.65;;;;;;;26.05;50.98;101074.38;5096692;28;20044;-53
2023/06/18 07:09:43;;;;;;;5.07;4.57;;;;;;;26.05;51.06;101068.97;5096133;28;20040;-54
2023/06/18 07:12:11;;;;;;;5.57;4.47;;;;;;;26.05;50.79;101064.41;5096127;28;20048;-48
2023/06/18 07:14:38;;;;;;;5.40;4.20;;;;;;;26.06;50.80;101065.25;5096475;28;20047;-48
2023/06/18 07:17:06;;;;;;;5.32;4.20;;;;;;;26.06;50.89;101067.97;5095617;28;20055;-49
2023/06/18 07:19:33;;;;;;;4.70;4.20;;;;;;;26.06;50.89;101076.97;5094602;28;20067;-53
2023/06/18 07:22:08;;;;;;;6.18;4.68;;;;;;;26.07;50.96;101077.78;5096287;28;20048;-49
2023/06/18 07:24:36;;;;;;;5.35;4.80;;;;;;;26.07;50.77;101073.22;5095824;28;20044;-47
2023/06/18 07:27:03;;;;;;;7.28;4.70;;;;;;;26.08;50.92;101064.06;5095803;28;20040;-48
2023/06/18 07:29:31;;;;;;;5.20;4.70;;;;;;;26.09;50.92;101065.78;5096388;28;20040;-48
2023/06/18 07:31:59;;;;;;;5.32;4.60;;;;;;;26.11;51.00;101073.72;5096031;28;20051;-54
2023/06/18 07:34:26;;;;;;;5.57;4.97;;;;;;;26.12;50.70;101076.25;5095745;28;20044;-54
2023/06/18 07:36:54;;;;;;;5.78;4.78;;;;;;;26.12;49.67;101080.84;5096049;28;20044;-54
2023/06/18 07:39:21;;;;;;;6.78;4.80;;;;;;;26.09;48.65;101082.03;5095620;28;20047;-54
2023/06/18 07:41:49;;;;;;;5.57;4.75;;;;;;;26.09;48.13;101075.75;5096092;28;20051;-50
2023/06/18 07:44:17;;;;;;;6.13;5.00;;;;;;;26.05;47.12;101072.56;5095806;28;20508;-47
2023/06/18 07:46:44;;;;;;;5.68;4.97;;;;;;;26.03;46.65;101082.72;5095498;28;20420;-49
2023/06/18 07:49:12;;;;;;;5.95;4.68;;;;;;;26.02;46.20;101078.31;5095424;28;20055;-49
2023/06/18 07:51:42;;;;;;;5.85;4.85;;;;;;;26.02;46.13;101069.34;5096050;28;20044;-52
2023/06/18 07:54:10;;;;;;;5.40;4.75;;;;;;;26.02;46.11;101072.88;5095770;28;20055;-49
2023/06/18 07:56:37;;;;;;;5.38;4.88;;;;;;;26.02;46.64;101070.19;5095338;28;20052;-48
2023/06/18 07:59:05;;;;;;;7.90;5.50;;;;;;;26.03;47.19;101063.72;5095287;28;20055;-48
2023/06/18 08:01:33;;;;;;;5.93;5.30;;;;;;;26.06;47.74;101065.25;5095536;28;20055;-50
2023/06/18 08:04:00;;;;;;;6.63;5.50;;;;;;;26.07;47.72;101062.38;5095089;28;20039;-51
2023/06/18 08:06:28;;;;;;;5.90;5.30;;;;;;;26.06;46.34;101059.84;5094696;28;20051;-49
2023/06/18 08:08:55;;;;;;;6.07;5.10;;;;;;;26.03;46.02;101061.00;5095171;28;20051;-50
2023/06/18 08:11:23;;;;;;;7.60;5.93;;;;;;;26.04;45.23;101062.69;5095100;28;20051;-55
2023/06/18 08:13:51;;;;;;;6.93;5.28;;;;;;;26.04;45.08;101072.72;5093907;28;20538;-55
2023/06/18 08:16:18;;;;;;;6.43;4.78;;;;;;;26.03;45.10;101071.00;5095386;28;20055;-54
2023/06/18 08:18:46;;;;;;;6.05;5.07;;;;;;;26.02;44.85;101075.59;5094332;28;20044;-54
2023/06/18 08:21:13;;;;;;;7.00;5.03;;;;;;;26.03;44.62;101074.56;5091961;28;20484;-50
2023/06/18 08:23:40;;;;;;;6.38;5.38;;;;;;;26.03;44.37;101071.88;5094876;28;20055;-54
2023/06/18 08:26:08;;;;;;;6.18;5.38;;;;;;;26.04;44.83;101070.00;5094662;28;20066;-48
2023/06/18 08:28:35;;;;;;;7.20;5.22;;;;;;;26.07;45.15;101072.38;5094863;28;20410;-46
2023/06/18 08:31:03;;;;;;;5.40;4.43;;;;;;;26.07;45.12;101075.94;5094418;28;20408;-49
2023/06/18 08:33:30;;;;;;;6.78;4.60;;;;;;;26.08;45.04;101068.63;5094617;28;20063;-54
2023/06/18 08:35:58;;;;;;;5.65;4.97;;;;;;;26.10;45.24;101069.31;5094465;28;20044;-56
2023/06/18 08:38:25;;;;;;;6.65;4.55;;;;;;;26.11;45.47;101058.28;5094842;28;20052;-55
2023/06/18 08:41:01;;;;;;;6.55;5.55;;;;;;;26.11;45.09;101062.88;5093937;28;20483;-56
2023/06/18 08:43:32;;;;;;;6.82;5.25;;;;;;;26.10;45.10;101072.88;5094572;28;20061;-56
2023/06/18 08:46:09;;;;;;;6.28;4.88;;;;;;;26.08;45.09;101072.19;5094568;28;20048;-53
2023/06/18 08:48:42;;;;;;;5.90;5.28;;;;;;;26.09;45.08;101071.19;5094092;28;20051;-53
2023/06/18 08:51:11;;;;;;;7.40;5.28;;;;;;;26.08;45.04;101066.75;5092854;28;20149;-48
2023/06/18 08:53:43;;;;;;;6.20;5.13;;;;;;;26.10;45.37;101063.91;5086565;28;20040;-55
2023/06/18 08:56:14;;;;;;;6.85;5.35;;;;;;;26.11;45.31;101060.16;5090220;28;20051;-48
2023/06/18 08:58:52;;;;;;;6.50;5.63;;;;;;;26.12;45.84;101065.41;5094146;28;20051;-48
2023/06/18 09:01:19;;;;;;;5.80;4.57;;;;;;;26.14;46.13;101068.81;5093251;28;20357;-56
2023/06/18 09:03:48;;;;;;;7.35;5.07;;;;;;;26.16;46.31;101068.63;5094300;28;20044;-56
2023/06/18 09:06:15;;;;;;;7.25;5.07;;;;;;;26.19;46.70;101070.16;5094044;28;20044;-56
2023/06/18 09:08:43;;;;;;;5.93;4.93;;;;;;;26.20;46.69;101071.84;5092855;28;20048;-48
2023/06/18 09:11:12;;;;;;;6.15;4.72;;;;;;;26.21;46.83;101074.41;5092296;28;20514;-47
2023/06/18 09:13:42;;;;;;;7.03;5.32;;;;;;;26.22;46.90;101081.53;5088454;28;20400;-49
2023/06/18 09:16:10;;;;;;;6.18;4.57;;;;;;;26.22;47.08;101069.81;5072925;28;20044;-48
2023/06/18 09:18:37;;;;;;;6.75;5.10;;;;;;;26.23;47.14;101069.63;5082756;28;20040;-48
2023/06/18 09:21:05;;;;;;;6.57;5.45;;;;;;;26.23;47.32;101074.22;5091428;28;20040;-57
2023/06/18 09:23:33;;;;;;;6.60;5.20;;;;;;;26.23;47.36;101068.81;5093358;28;20503;-56
2023/06/18 09:26:01;;;;;;;6.90;5.32;;;;;;;26.22;47.51;101073.38;5093215;28;20047;-56
2023/06/18 09:28:29;;;;;;;6.82;5.75;;;;;;;26.23;47.36;101074.22;5093306;28;20052;-57
2023/06/18 09:31:01;;;;;;;5.68;4.70;;;;;;;26.22;47.28;101067.09;5093146;28;20044;-56
2023/06/18 09:33:31;;;;;;;6.43;5.57;;;;;;;26.23;47.54;101068.81;5093093;28;20043;-57
2023/06/18 09:36:06;;;;;;;6.65;5.05;;;;;;;26.23;47.61;101076.94;5093729;28;20055;-56
2023/06/18 09:38:39;;;;;;;7.55;5.10;;;;;;;26.23;47.54;101066.09;5092946;28;20059;-57
2023/06/18 09:41:17;;;;;;;5.97;4.88;;;;;;;26.23;47.60;101069.63;5092620;28;20047;-48
2023/06/18 09:43:48;;;;;;;7.10;5.38;;;;;;;26.23;47.72;101072.34;5093145;28;20055;-49
2023/06/18 09:46:16;;;;;;;6.60;5.85;;;;;;;26.23;47.89;101066.09;5092564;28;20048;-51
2023/06/18 09:48:46;;;;;;;6.43;5.28;;;;;;;26.23;48.01;101072.34;5091702;28;20052;-49
2023/06/18 09:51:20;;;;;;;5.93;5.22;;;;;;;26.23;47.97;101068.81;5092111;28;20400;-58
2023/06/18 09:53:59;;;;;;;6.82;4.97;;;;;;;26.23;47.88;101071.50;5091852;28;20052;-57
2023/06/18 09:56:27;;;;;;;5.82;5.05;;;;;;;26.23;47.98;101071.50;5092550;28;20044;-48
2023/06/18 09:58:54;;;;;;;6.20;4.40;;;;;;;26.24;47.95;101068.63;5092462;28;20044;-51
2023/06/18 10:01:21;;;;;;;5.93;5.28;;;;;;;26.23;48.14;101064.22;5070504;28;20059;-49
2023/06/18 10:03:49;;;;;;;6.10;5.30;;;;;;;26.24;48.24;101059.63;5072393;28;20048;-51
2023/06/18 10:06:21;;;;;;;6.65;5.63;;;;;;;26.24;48.28;101059.63;5072281;28;20070;-52
2023/06/18 10:08:51;;;;;;;7.55;5.05;;;;;;;26.25;48.18;101080.31;5072546;28;20053;-49
2023/06/18 10:11:20;;;;;;;5.95;4.88;;;;;;;26.24;48.27;101073.19;5072269;28;20052;-49
2023/06/18 10:13:50;;;;;;;7.20;5.03;;;;;;;26.24;48.24;101071.31;5077354;28;20044;-48
2023/06/18 10:16:19;;;;;;;5.72;4.85;;;;;;;26.24;48.33;101065.06;5092702;28;20530;-48
2023/06/18 10:19:06;;;;;;;6.75;5.13;;;;;;;26.25;48.31;101064.03;5092227;28;20245;-49
2023/06/18 10:21:37;;;;;;;5.47;4.90;;;;;;;26.26;48.39;101065.75;5091038;28;20036;-52
2023/06/18 10:24:18;;;;;;;6.88;5.35;;;;;;;26.25;48.51;101064.91;5091724;28;20044;-47
2023/06/18 10:26:46;;;;;;;5.93;4.85;;;;;;;26.25;48.51;101067.63;5092822;28;20048;-48
2023/06/18 10:29:14;;;;;;;5.43;4.88;;;;;;;26.24;48.39;101059.63;5093350;28;20044;-56
2023/06/18 10:31:42;;;;;;;6.57;5.32;;;;;;;26.26;48.46;101065.75;5096512;28;20044;-57
2023/06/18 10:34:11;;;;;;;6.85;4.97;;;;;;;26.26;48.59;101057.59;5096929;28;20047;-58
2023/06/18 10:36:39;;;;;;;7.13;4.82;;;;;;;26.27;48.48;101053.88;5096513;28;20411;-57
2023/06/18 10:39:06;;;;;;;5.78;5.18;;;;;;;26.27;48.40;101067.44;5096799;28;20055;-57
2023/06/18 10:41:45;;;;;;;6.03;5.18;;;;;;;26.27;48.57;101056.59;5096155;28;20040;-49
2023/06/18 10:44:13;;;;;;;6.32;5.28;;;;;;;26.27;48.63;101051.16;5096273;28;20047;-47
2023/06/18 10:46:41;;;;;;;6.00;4.97;;;;;;;26.26;48.69;101047.59;5096693;28;20047;-57
2023/06/18 10:49:16;;;;;;;6.88;5.60;;;;;;;26.28;48.65;101055.56;5090554;28;20049;-58
2023/06/18 10:52:05;;;;;;;6.70;4.85;;;;;;;26.28;48.60;101055.56;5076154;28;20377;-56
2023/06/18 10:54:33;;;;;;;5.32;4.50;;;;;;;26.28;48.69;101044.69;5076218;28;20056;-57
2023/06/18 10:57:01;;;;;;;5.78;4.75;;;;;;;26.27;48.75;101037.56;5075734;28;20044;-57
2023/06/18 10:59:58;;;;;;;6.50;5.25;;;;;;;26.27;48.85;101037.56;5075617;28;20056;-58
2023/06/18 11:02:37;;;;;;;6.10;5.28;;;;;;;26.28;48.70;101036.56;5060576;28;20068;-56
2023/06/18 11:05:05;;;;;;;5.85;4.82;;;;;;;26.28;48.86;101036.56;5076154;28;20049;-56
2023/06/18 11:07:32;;;;;;;6.93;4.95;;;;;;;26.26;48.86;101034.03;5075646;28;20040;-57
2023/06/18 11:10:04;;;;;;;4.95;4.45;;;;;;;26.28;48.90;101036.56;5075529;28;20045;-57
2023/06/18 11:12:36;;;;;;;6.22;4.78;;;;;;;26.26;48.96;101034.03;5076017;28;20045;-50
2023/06/18 11:15:18;;;;;;;5.63;5.03;;;;;;;26.28;48.89;101025.69;5091086;28;20431;-51
2023/06/18 11:17:53;;;;;;;6.03;5.13;;;;;;;26.27;48.91;101019.44;5095746;28;20495;-49
2023/06/18 11:20:22;;;;;;;6.28;4.80;;;;;;;26.27;48.98;101016.72;5095056;28;20075;-51
2023/06/18 11:22:57;;;;;;;6.32;5.07;;;;;;;26.28;49.00;101009.41;5094384;28;20062;-57
2023/06/18 11:25:26;;;;;;;5.18;4.57;;;;;;;26.28;49.11;101018.41;5094170;28;20055;-57
2023/06/18 11:27:58;;;;;;;5.72;4.88;;;;;;;26.27;49.04;101003.16;5095434;28;20525;-57
2023/06/18 11:30:26;;;;;;;6.47;5.07;;;;;;;26.29;49.02;101000.25;5095549;28;20048;-57
2023/06/18 11:32:53;;;;;;;5.35;4.85;;;;;;;26.29;48.99;101000.25;5095723;28;20044;-57
2023/06/18 11:35:21;;;;;;;5.53;4.65;;;;;;;26.27;49.06;100997.72;5094116;28;20048;-56